Time;durP1;ratioP1;P1;durP2;ratioP2;P2;SDS_P1;SDS_P2;PMS_P1;PMS_P2;Temp;Humidity;BMP_temperature;BMP_pressure;BME280_temperature;BME280_humidity;BME280_pressure;Samples;Min_cycle;Max_cycle;Signal;HPM_P1;HPM_P2
2021/08/28 00:00:08;;;;;;;;;;;12.90;99.90;;;;;;5093983;28;19916;-72
2021/08/28 00:02:34;;;;;;;;;;;12.90;99.90;;;;;;5092686;28;20281;-72
2021/08/28 00:04:59;;;;;;;;;;;12.90;99.90;;;;;;5092659;28;20037;-72
2021/08/28 00:07:25;;;;;;;;;;;12.90;99.90;;;;;;5093675;28;20356;-72
2021/08/28 00:09:50;;;;;;;;;;;12.90;99.90;;;;;;5093937;28;19951;-72
2021/08/28 00:12:16;;;;;;;;;;;12.90;99.90;;;;;;5093749;28;19908;-72
2021/08/28 00:14:41;;;;;;;;;;;12.90;99.90;;;;;;5093832;28;19912;-72
2021/08/28 00:17:07;;;;;;;;;;;12.90;99.90;;;;;;5093427;28;19912;-72
2021/08/28 00:19:32;;;;;;;;;;;12.70;99.90;;;;;;5093532;28;19912;-72
2021/08/28 00:21:58;;;;;;;;;;;12.60;99.90;;;;;;5093498;28;19956;-71
2021/08/28 00:24:23;;;;;;;;;;;12.50;99.90;;;;;;5093686;28;20304;-72
2021/08/28 00:26:49;;;;;;;;;;;12.50;99.90;;;;;;5092042;28;19908;-72
2021/08/28 00:29:14;;;;;;;;;;;12.50;99.90;;;;;;5090906;28;19909;-72
2021/08/28 00:31:40;;;;;;;;;;;12.50;99.90;;;;;;5093260;28;19916;-71
2021/08/28 00:34:07;;;;;;;;;;;12.50;99.90;;;;;;5093506;28;19908;-72
2021/08/28 00:36:32;;;;;;;;;;;12.50;99.90;;;;;;5091770;28;20166;-72
2021/08/28 00:38:58;;;;;;;;;;;12.50;99.90;;;;;;5092169;28;19918;-72
2021/08/28 00:41:23;;;;;;;;;;;12.50;99.90;;;;;;5093040;28;19912;-72
2021/08/28 00:43:49;;;;;;;;;;;12.50;99.90;;;;;;5093174;28;19962;-72
2021/08/28 00:46:14;;;;;;;;;;;12.50;99.90;;;;;;5092703;28;19920;-72
2021/08/28 00:48:39;;;;;;;;;;;12.50;99.90;;;;;;5093181;28;20455;-72
2021/08/28 00:51:07;;;;;;;;;;;12.60;99.90;;;;;;5093109;28;19908;-72
2021/08/28 00:53:33;;;;;;;;;;;12.50;99.90;;;;;;5093126;28;19908;-72
2021/08/28 00:55:58;;;;;;;;;;;12.50;99.90;;;;;;5092914;28;19908;-72
2021/08/28 00:58:24;;;;;;;;;;;12.50;99.90;;;;;;5092563;28;19912;-72
2021/08/28 01:00:53;;;;;;;;;;;12.40;99.90;;;;;;5090921;28;20289;-72
2021/08/28 01:03:30;;;;;;;;;;;12.40;99.90;;;;;;5092843;28;19912;-71
2021/08/28 01:06:01;;;;;;;;;;;12.40;99.90;;;;;;5092823;28;19908;-72
2021/08/28 01:08:30;;;;;;;;;;;12.40;99.90;;;;;;5092682;28;19915;-72
2021/08/28 01:11:19;;;;;;;;;;;12.40;99.90;;;;;;5092543;28;19915;-72
2021/08/28 01:13:45;;;;;;;;;;;12.40;99.90;;;;;;5086898;28;19919;-72
2021/08/28 01:16:11;;;;;;;;;;;12.40;99.90;;;;;;5091813;28;20310;-72
2021/08/28 01:18:38;;;;;;;;;;;12.30;99.90;;;;;;5092597;28;19915;-72
2021/08/28 01:21:14;;;;;;;;;;;12.30;99.90;;;;;;5091106;28;19960;-72
2021/08/28 01:23:39;;;;;;;;;;;12.30;99.90;;;;;;5092525;28;19908;-72
2021/08/28 01:26:09;;;;;;;;;;;12.30;99.90;;;;;;5092038;28;19919;-72
2021/08/28 01:28:41;;;;;;;;;;;12.20;99.90;;;;;;5090599;28;20319;-72
2021/08/28 01:31:08;;;;;;;;;;;12.30;99.90;;;;;;5092056;28;19954;-72
2021/08/28 01:33:33;;;;;;;;;;;12.30;99.90;;;;;;5090919;28;19908;-72
2021/08/28 01:35:59;;;;;;;;;;;12.30;99.90;;;;;;5092253;28;20324;-72
2021/08/28 01:38:24;;;;;;;;;;;12.30;99.90;;;;;;5084330;28;19912;-72
2021/08/28 01:40:51;;;;;;;;;;;12.30;99.90;;;;;;5091737;28;19965;-72
2021/08/28 01:43:17;;;;;;;;;;;12.30;99.90;;;;;;5092142;28;19922;-72
2021/08/28 01:45:42;;;;;;;;;;;12.30;99.90;;;;;;5091980;28;20331;-71
2021/08/28 01:48:11;;;;;;;;;;;12.30;99.90;;;;;;5091617;28;19933;-72
2021/08/28 01:50:36;;;;;;;;;;;12.20;99.90;;;;;;5091927;28;19955;-72
2021/08/28 01:53:02;;;;;;;;;;;12.20;99.90;;;;;;5092018;28;20276;-72
2021/08/28 01:55:27;;;;;;;;;;;12.20;99.90;;;;;;5091876;28;19909;-72
2021/08/28 01:57:53;;;;;;;;;;;12.20;99.90;;;;;;5091738;28;19991;-72
2021/08/28 02:00:19;;;;;;;;;;;12.20;99.90;;;;;;5091732;28;20057;-72
2021/08/28 02:02:44;;;;;;;;;;;12.20;99.90;;;;;;5090400;28;19912;-72
2021/08/28 02:05:10;;;;;;;;;;;12.20;99.90;;;;;;5091830;28;20424;-72
2021/08/28 02:07:42;;;;;;;;;;;12.10;99.90;;;;;;5083783;28;19916;-72
2021/08/28 02:10:13;;;;;;;;;;;12.10;99.90;;;;;;5090237;28;19908;-72
2021/08/28 02:12:42;;;;;;;;;;;12.20;99.90;;;;;;5091575;28;20361;-72
2021/08/28 02:15:08;;;;;;;;;;;12.20;99.90;;;;;;5091650;28;19914;-72
2021/08/28 02:17:46;;;;;;;;;;;12.20;99.90;;;;;;5091178;28;20126;-72
2021/08/28 02:20:12;;;;;;;;;;;12.20;99.90;;;;;;5091512;28;19916;-72
2021/08/28 02:22:39;;;;;;;;;;;12.20;99.90;;;;;;5090314;28;20387;-72
2021/08/28 02:25:23;;;;;;;;;;;12.20;99.90;;;;;;5091389;28;19912;-72
2021/08/28 02:27:50;;;;;;;;;;;12.20;99.90;;;;;;5090160;28;19908;-72
2021/08/28 02:30:17;;;;;;;;;;;12.20;99.90;;;;;;5091462;28;19908;-72
2021/08/28 02:32:44;;;;;;;;;;;12.20;99.90;;;;;;5090141;28;20353;-72
2021/08/28 02:35:10;;;;;;;;;;;12.20;99.90;;;;;;5091679;28;19943;-72
2021/08/28 02:37:37;;;;;;;;;;;12.20;99.90;;;;;;5085175;28;19944;-72
2021/08/28 02:40:05;;;;;;;;;;;12.20;99.90;;;;;;5090937;28;20312;-72
2021/08/28 02:42:30;;;;;;;;;;;12.20;99.90;;;;;;5091107;28;19908;-72
2021/08/28 02:44:56;;;;;;;;;;;12.20;99.90;;;;;;5091556;28;19909;-72
2021/08/28 02:47:22;;;;;;;;;;;12.20;99.90;;;;;;5090758;28;20396;-72
2021/08/28 02:49:48;;;;;;;;;;;12.20;99.90;;;;;;5091281;28;19916;-72
2021/08/28 02:52:15;;;;;;;;;;;12.20;99.90;;;;;;5091312;28;19919;-72
2021/08/28 02:54:41;;;;;;;;;;;12.20;99.90;;;;;;5089880;28;19908;-72
2021/08/28 02:57:06;;;;;;;;;;;12.20;99.90;;;;;;5090795;28;20394;-72
2021/08/28 02:59:33;;;;;;;;;;;12.20;99.90;;;;;;5091096;28;19912;-72
2021/08/28 03:02:00;;;;;;;;;;;12.20;99.90;;;;;;5091123;28;19915;-72
2021/08/28 03:04:26;;;;;;;;;;;12.20;99.90;;;;;;5090988;28;20002;-71
2021/08/28 03:06:52;;;;;;;;;;;12.20;99.90;;;;;;5090645;28;19955;-72
2021/08/28 03:09:17;;;;;;;;;;;12.20;99.90;;;;;;5083980;28;19977;-72
2021/08/28 03:11:44;;;;;;;;;;;12.20;99.90;;;;;;5090636;28;19908;-72
2021/08/28 03:14:09;;;;;;;;;;;12.10;99.90;;;;;;5091188;28;19995;-72
2021/08/28 03:16:36;;;;;;;;;;;12.10;99.90;;;;;;5089104;28;19995;-72
2021/08/28 03:19:02;;;;;;;;;;;12.10;99.90;;;;;;5090912;28;19943;-72
2021/08/28 03:21:29;;;;;;;;;;;12.10;99.90;;;;;;5091169;28;19912;-72
2021/08/28 03:23:56;;;;;;;;;;;12.10;99.90;;;;;;5090930;28;20269;-72
2021/08/28 03:26:22;;;;;;;;;;;12.10;99.90;;;;;;5090537;28;19908;-72
2021/08/28 03:28:48;;;;;;;;;;;12.10;99.90;;;;;;5088464;28;19917;-72
2021/08/28 03:31:15;;;;;;;;;;;12.10;99.90;;;;;;5090695;28;20369;-72
2021/08/28 03:33:40;;;;;;;;;;;12.10;99.90;;;;;;5090917;28;19912;-72
2021/08/28 03:36:06;;;;;;;;;;;12.10;99.90;;;;;;5090606;28;19931;-72
2021/08/28 03:38:33;;;;;;;;;;;12.10;99.90;;;;;;5091604;28;19908;-72
2021/08/28 03:40:59;;;;;;;;;;;12.10;99.90;;;;;;5094255;28;20336;-72
2021/08/28 03:43:24;;;;;;;;;;;12.20;99.90;;;;;;5094443;28;19939;-72
2021/08/28 03:45:50;;;;;;;;;;;12.20;99.90;;;;;;5094334;28;20430;-72
2021/08/28 03:48:16;;;;;;;;;;;12.10;99.90;;;;;;5094096;28;20368;-72
2021/08/28 03:50:42;;;;;;;;;;;12.10;99.90;;;;;;5094152;28;19999;-72
2021/08/28 03:53:07;;;;;;;;;;;12.10;99.90;;;;;;5094118;28;20392;-71
2021/08/28 03:55:33;;;;;;;;;;;12.00;99.90;;;;;;5094208;28;20392;-72
2021/08/28 03:57:58;;;;;;;;;;;12.00;99.90;;;;;;5093817;28;20350;-72
2021/08/28 04:00:24;;;;;;;;;;;12.10;99.90;;;;;;5092322;28;19967;-72
2021/08/28 04:02:49;;;;;;;;;;;12.10;99.90;;;;;;5093782;28;20385;-72
2021/08/28 04:05:15;;;;;;;;;;;12.10;99.90;;;;;;5094011;28;19908;-72
2021/08/28 04:07:40;;;;;;;;;;;12.10;99.90;;;;;;5093313;28;19908;-72
2021/08/28 04:10:06;;;;;;;;;;;12.10;99.90;;;;;;5093797;28;19912;-71
2021/08/28 04:12:31;;;;;;;;;;;12.10;99.90;;;;;;5093785;28;19908;-71
2021/08/28 04:14:57;;;;;;;;;;;12.20;99.90;;;;;;5093457;28;20292;-72
2021/08/28 04:17:23;;;;;;;;;;;12.10;99.90;;;;;;5093469;28;19915;-72
2021/08/28 04:19:48;;;;;;;;;;;12.20;99.90;;;;;;5093292;28;19913;-72
2021/08/28 04:22:14;;;;;;;;;;;12.20;99.90;;;;;;5093960;28;19919;-71
2021/08/28 04:24:39;;;;;;;;;;;12.20;99.90;;;;;;5093546;28;19912;-72
2021/08/28 04:27:05;;;;;;;;;;;12.20;99.90;;;;;;5093216;28;20253;-72
2021/08/28 04:29:31;;;;;;;;;;;12.10;99.90;;;;;;5090719;28;19912;-71
2021/08/28 04:31:56;;;;;;;;;;;12.10;99.90;;;;;;5093197;28;20341;-72
2021/08/28 04:34:22;;;;;;;;;;;12.10;99.90;;;;;;5093442;28;19908;-72
2021/08/28 04:36:47;;;;;;;;;;;12.10;99.90;;;;;;5092892;28;20334;-72
2021/08/28 04:39:13;;;;;;;;;;;12.10;99.90;;;;;;5093213;28;19951;-72
2021/08/28 04:41:38;;;;;;;;;;;12.10;99.90;;;;;;5093110;28;20333;-71
2021/08/28 04:44:04;;;;;;;;;;;12.10;99.90;;;;;;5093324;28;20378;-72
2021/08/28 04:46:29;;;;;;;;;;;12.10;99.90;;;;;;5092681;28;19923;-72
2021/08/28 04:48:55;;;;;;;;;;;12.10;99.90;;;;;;5093419;28;19916;-72
2021/08/28 04:51:20;;;;;;;;;;;12.10;99.90;;;;;;5092094;28;19908;-72
2021/08/28 04:53:46;;;;;;;;;;;12.10;99.90;;;;;;5092910;28;20250;-72
2021/08/28 04:56:11;;;;;;;;;;;12.10;99.90;;;;;;5092601;28;19922;-72
2021/08/28 04:58:37;;;;;;;;;;;12.10;99.90;;;;;;5090285;28;19923;-71
2021/08/28 05:01:02;;;;;;;;;;;12.10;99.90;;;;;;5092189;28;19912;-72
2021/08/28 05:03:28;;;;;;;;;;;12.10;99.90;;;;;;5092987;28;19908;-72
2021/08/28 05:05:54;;;;;;;;;;;12.10;99.90;;;;;;5092646;28;19908;-72
2021/08/28 05:08:20;;;;;;;;;;;12.10;99.90;;;;;;5092274;28;19908;-72
2021/08/28 05:10:46;;;;;;;;;;;12.10;99.90;;;;;;5092579;28;19915;-73
2021/08/28 05:13:11;;;;;;;;;;;12.10;99.90;;;;;;5092666;28;19951;-73
2021/08/28 05:15:37;;;;;;;;;;;12.00;99.90;;;;;;5092634;28;19930;-72
2021/08/28 05:18:04;;;;;;;;;;;12.00;99.90;;;;;;5092224;28;20002;-73
2021/08/28 05:20:30;;;;;;;;;;;12.10;99.90;;;;;;5092270;28;19912;-72
2021/08/28 05:22:55;;;;;;;;;;;12.10;99.90;;;;;;5092258;28;19953;-71
2021/08/28 05:25:21;;;;;;;;;;;12.10;99.90;;;;;;5092438;28;20330;-73
2021/08/28 05:27:46;;;;;;;;;;;12.10;99.90;;;;;;5091913;28;19934;-72
2021/08/28 05:30:12;;;;;;;;;;;12.10;99.90;;;;;;5089710;28;19908;-72
2021/08/28 05:32:37;;;;;;;;;;;12.10;99.90;;;;;;5092036;28;20300;-72
2021/08/28 05:35:03;;;;;;;;;;;12.20;99.90;;;;;;5092222;28;19947;-73
2021/08/28 05:37:28;;;;;;;;;;;12.30;99.90;;;;;;5091707;28;20319;-72
2021/08/28 05:39:54;;;;;;;;;;;12.30;99.90;;;;;;5092055;28;19912;-72
2021/08/28 05:42:19;;;;;;;;;;;12.30;99.90;;;;;;5092076;28;19953;-72
2021/08/28 05:44:45;;;;;;;;;;;12.30;99.90;;;;;;5092073;28;19998;-72
2021/08/28 05:47:10;;;;;;;;;;;12.30;99.90;;;;;;5091522;28;19916;-72
2021/08/28 05:49:36;;;;;;;;;;;12.30;99.90;;;;;;5091928;28;19908;-72
2021/08/28 05:52:01;;;;;;;;;;;12.50;99.90;;;;;;5091737;28;20107;-72
2021/08/28 05:54:27;;;;;;;;;;;12.50;99.90;;;;;;5091924;28;19908;-72
2021/08/28 05:56:52;;;;;;;;;;;12.50;99.90;;;;;;5091387;28;19908;-72
2021/08/28 05:59:18;;;;;;;;;;;12.60;99.90;;;;;;5085532;28;19999;-72
2021/08/28 06:01:43;;;;;;;;;;;12.60;99.90;;;;;;5088437;28;20293;-74
2021/08/28 06:04:09;;;;;;;;;;;12.50;99.90;;;;;;5091687;28;20380;-72
2021/08/28 06:06:34;;;;;;;;;;;12.40;99.90;;;;;;5091197;28;19912;-72
2021/08/28 06:09:00;;;;;;;;;;;12.30;99.90;;;;;;5091731;28;19912;-72
2021/08/28 06:11:25;;;;;;;;;;;12.20;99.90;;;;;;5091802;28;19914;-72
2021/08/28 06:13:54;;;;;;;;;;;12.20;99.90;;;;;;5091521;28;19931;-72
2021/08/28 06:16:20;;;;;;;;;;;12.20;99.90;;;;;;5091301;28;20266;-72
2021/08/28 06:18:46;;;;;;;;;;;12.10;99.90;;;;;;5091492;28;19931;-72
2021/08/28 06:21:11;;;;;;;;;;;12.00;99.90;;;;;;5091148;28;20373;-72
2021/08/28 06:23:37;;;;;;;;;;;12.10;99.90;;;;;;5091554;28;19912;-71
2021/08/28 06:26:02;;;;;;;;;;;12.10;99.90;;;;;;5091269;28;19912;-72
2021/08/28 06:28:28;;;;;;;;;;;12.10;99.90;;;;;;5091460;28;19947;-72
2021/08/28 06:30:53;;;;;;;;;;;12.10;99.90;;;;;;5089917;28;20334;-71
2021/08/28 06:33:19;;;;;;;;;;;12.10;99.90;;;;;;5091332;28;19912;-71
2021/08/28 06:35:44;;;;;;;;;;;12.00;99.90;;;;;;5091201;28;19912;-72
2021/08/28 06:38:10;;;;;;;;;;;12.00;99.90;;;;;;5090951;28;20432;-72
2021/08/28 06:40:35;;;;;;;;;;;12.10;99.90;;;;;;5091232;28;19912;-72
2021/08/28 06:43:01;;;;;;;;;;;12.20;99.90;;;;;;5091403;28;20353;-72
2021/08/28 06:45:26;;;;;;;;;;;12.20;99.90;;;;;;5091201;28;19923;-72
2021/08/28 06:47:52;;;;;;;;;;;12.20;99.90;;;;;;5090873;28;19962;-71
2021/08/28 06:50:17;;;;;;;;;;;12.40;99.90;;;;;;5091063;28;20369;-71
2021/08/28 06:52:43;;;;;;;;;;;12.40;99.90;;;;;;5091258;28;19908;-72
2021/08/28 06:55:09;;;;;;;;;;;12.40;99.90;;;;;;5091183;28;20379;-72
2021/08/28 06:57:34;;;;;;;;;;;12.50;99.90;;;;;;5090665;28;19954;-72
2021/08/28 07:00:00;;;;;;;;;;;12.70;99.90;;;;;;5101797;28;19920;-71
2021/08/28 07:02:25;;;;;;;;;;;12.90;99.90;;;;;;5111318;28;19953;-71
2021/08/28 07:04:50;;;;;;;;;;;13.00;99.90;;;;;;5111267;28;19908;-71
2021/08/28 07:07:16;;;;;;;;;;;13.10;99.90;;;;;;5111037;28;20326;-72
2021/08/28 07:09:41;;;;;;;;;;;13.30;99.90;;;;;;5111368;28;19908;-72
2021/08/28 07:12:07;;;;;;;;;;;13.40;99.90;;;;;;5111394;28;20087;-72
2021/08/28 07:14:33;;;;;;;;;;;13.70;99.90;;;;;;5114049;27;19908;-71
2021/08/28 07:16:58;;;;;;;;;;;13.60;99.90;;;;;;5114732;28;20374;-72
2021/08/28 07:19:24;;;;;;;;;;;13.70;99.90;;;;;;5114937;28;19908;-72
2021/08/28 07:21:49;;;;;;;;;;;13.40;99.90;;;;;;5115096;28;19912;-72
2021/08/28 07:24:15;;;;;;;;;;;13.40;99.90;;;;;;5115032;28;19934;-71
2021/08/28 07:26:40;;;;;;;;;;;13.50;99.90;;;;;;5114690;28;20270;-72
2021/08/28 07:29:06;;;;;;;;;;;13.60;99.90;;;;;;5109296;28;20277;-71
2021/08/28 07:31:31;;;;;;;;;;;14.10;99.90;;;;;;5094765;28;19908;-72
2021/08/28 07:33:57;;;;;;;;;;;14.20;99.90;;;;;;5094310;28;19915;-72
2021/08/28 07:36:22;;;;;;;;;;;14.30;99.90;;;;;;5094076;28;19912;-72
2021/08/28 07:38:48;;;;;;;;;;;14.10;99.90;;;;;;5094505;28;19912;-72
2021/08/28 07:41:13;;;;;;;;;;;14.60;99.90;;;;;;5094196;28;19916;-72
2021/08/28 07:43:39;;;;;;;;;;;14.20;99.90;;;;;;5094404;28;19908;-71
2021/08/28 07:46:04;;;;;;;;;;;14.40;99.90;;;;;;5093770;28;19919;-72
2021/08/28 07:48:29;;;;;;;;;;;14.20;99.90;;;;;;5092729;28;19915;-71
2021/08/28 07:50:55;;;;;;;;;;;14.10;99.90;;;;;;5094089;28;20040;-72
2021/08/28 07:53:20;;;;;;;;;;;13.90;99.90;;;;;;5094270;28;19950;-72
2021/08/28 07:55:46;;;;;;;;;;;14.10;99.90;;;;;;5094055;28;19908;-72
2021/08/28 07:58:11;;;;;;;;;;;14.00;99.90;;;;;;5093629;28;20015;-72
2021/08/28 08:00:37;;;;;;;;;;;14.70;99.90;;;;;;5093376;28;19969;-71
2021/08/28 08:03:02;;;;;;;;;;;14.40;99.90;;;;;;5093849;28;19915;-72
2021/08/28 08:05:28;;;;;;;;;;;14.20;99.90;;;;;;5093757;28;20313;-72
2021/08/28 08:07:53;;;;;;;;;;;14.20;99.90;;;;;;5093698;28;19908;-72
2021/08/28 08:10:19;;;;;;;;;;;14.30;99.90;;;;;;5093704;28;19969;-72
2021/08/28 08:12:44;;;;;;;;;;;14.40;99.90;;;;;;5093753;28;19916;-72
2021/08/28 08:15:10;;;;;;;;;;;14.70;99.90;;;;;;5093716;28;20411;-72
2021/08/28 08:17:35;;;;;;;;;;;15.40;99.90;;;;;;5093132;28;19908;-72
2021/08/28 08:20:02;;;;;;;;;;;15.50;99.90;;;;;;5093342;28;19918;-72
2021/08/28 08:22:27;;;;;;;;;;;16.40;99.90;;;;;;5093634;28;20004;-72
2021/08/28 08:24:53;;;;;;;;;;;17.60;99.90;;;;;;5092328;28;20387;-72
2021/08/28 08:27:18;;;;;;;;;;;17.30;99.90;;;;;;5093129;28;19908;-72
2021/08/28 08:29:44;;;;;;;;;;;16.10;99.90;;;;;;5092988;28;19915;-72
2021/08/28 08:32:09;;;;;;;;;;;15.60;99.90;;;;;;5089637;28;19915;-72
2021/08/28 08:34:35;;;;;;;;;;;15.20;99.90;;;;;;5093053;28;19912;-72
2021/08/28 08:37:00;;;;;;;;;;;14.90;99.90;;;;;;5092970;28;19908;-72
2021/08/28 08:39:26;;;;;;;;;;;14.40;99.90;;;;;;5093221;28;19909;-72
2021/08/28 08:41:52;;;;;;;;;;;14.30;99.90;;;;;;5093442;28;20150;-72
2021/08/28 08:44:18;;;;;;;;;;;14.10;99.90;;;;;;5093119;28;19908;-72
2021/08/28 08:46:44;;;;;;;;;;;14.10;99.90;;;;;;5092563;28;19916;-72
2021/08/28 08:49:11;;;;;;;;;;;14.50;99.90;;;;;;5092900;28;19915;-72
2021/08/28 08:51:38;;;;;;;;;;;15.60;99.90;;;;;;5092855;28;19908;-72
2021/08/28 08:54:04;;;;;;;;;;;16.30;99.90;;;;;;5092922;28;19998;-72
2021/08/28 08:56:29;;;;;;;;;;;16.50;99.90;;;;;;5092641;28;19908;-72
2021/08/28 08:58:55;;;;;;;;;;;17.90;99.90;;;;;;5092852;28;20376;-72
2021/08/28 09:01:20;;;;;;;;;;;17.20;99.90;;;;;;5092225;28;20402;-72
2021/08/28 09:03:46;;;;;;;;;;;16.50;99.90;;;;;;5089748;28;19973;-72
2021/08/28 09:06:12;;;;;;;;;;;15.80;99.90;;;;;;5092410;28;19908;-72
2021/08/28 09:08:37;;;;;;;;;;;15.20;99.90;;;;;;5092714;28;19908;-72
2021/08/28 09:11:03;;;;;;;;;;;15.00;99.90;;;;;;5092550;28;19916;-72
2021/08/28 09:13:29;;;;;;;;;;;14.80;99.90;;;;;;5092678;28;20388;-72
2021/08/28 09:15:57;;;;;;;;;;;15.00;99.90;;;;;;5084769;28;19909;-72
2021/08/28 09:18:23;;;;;;;;;;;15.10;99.90;;;;;;5091833;28;19919;-72
2021/08/28 09:20:49;;;;;;;;;;;14.80;99.90;;;;;;5092196;28;20376;-72
2021/08/28 09:23:16;;;;;;;;;;;15.20;99.90;;;;;;5092380;28;19992;-72
2021/08/28 09:25:42;;;;;;;;;;;15.50;99.90;;;;;;5092419;28;19908;-72
2021/08/28 09:28:08;;;;;;;;;;;15.70;99.90;;;;;;5092209;28;20258;-72
2021/08/28 09:30:45;;;;;;;;;;;15.40;99.90;;;;;;5092160;28;20021;-72
2021/08/28 09:33:15;;;;;;;;;;;15.50;99.90;;;;;;5086856;28;19915;-72
2021/08/28 09:35:42;;;;;;;;;;;15.60;99.90;;;;;;5091974;28;19908;-72
2021/08/28 09:38:12;;;;;;;;;;;15.40;99.90;;;;;;5091546;28;19916;-72
2021/08/28 09:40:42;;;;;;;;;;;15.40;99.90;;;;;;5091866;28;20234;-72
2021/08/28 09:43:13;;;;;;;;;;;15.50;99.90;;;;;;5091786;28;19962;-72
2021/08/28 09:45:38;;;;;;;;;;;15.30;99.90;;;;;;5091632;28;19912;-72
2021/08/28 09:48:07;;;;;;;;;;;15.10;99.90;;;;;;5091587;28;19915;-72
2021/08/28 09:50:34;;;;;;;;;;;15.20;99.90;;;;;;5091550;28;19908;-72
2021/08/28 09:53:01;;;;;;;;;;;15.30;99.90;;;;;;5091933;28;20415;-72
2021/08/28 09:55:29;;;;;;;;;;;15.20;99.90;;;;;;5091893;28;19935;-72
2021/08/28 09:57:54;;;;;;;;;;;15.10;99.90;;;;;;5091203;28;20415;-72
2021/08/28 10:00:21;;;;;;;;;;;15.10;99.90;;;;;;5091498;28;19916;-72
2021/08/28 10:03:02;;;;;;;;;;;15.00;99.90;;;;;;5096445;28;20364;-72
2021/08/28 10:05:28;;;;;;;;;;;14.80;99.90;;;;;;5111873;28;20128;-72
2021/08/28 10:07:57;;;;;;;;;;;14.70;99.90;;;;;;5111624;28;19908;-72
2021/08/28 10:10:23;;;;;;;;;;;14.40;99.90;;;;;;5111764;28;19908;-72
2021/08/28 10:12:49;;;;;;;;;;;14.20;99.90;;;;;;5111792;28;19923;-72
2021/08/28 10:15:15;;;;;;;;;;;14.10;99.90;;;;;;5110337;28;19927;-72
2021/08/28 10:17:41;;;;;;;;;;;13.80;99.90;;;;;;5111457;28;19914;-72
2021/08/28 10:20:06;;;;;;;;;;;13.70;99.90;;;;;;5111773;28;19911;-72
2021/08/28 10:22:35;;;;;;;;;;;13.50;99.90;;;;;;5111792;28;20376;-72
2021/08/28 10:25:03;;;;;;;;;;;13.50;99.90;;;;;;5111520;28;19908;-72
2021/08/28 10:27:29;;;;;;;;;;;13.60;99.90;;;;;;5111265;28;19995;-71
2021/08/28 10:29:54;;;;;;;;;;;13.70;99.90;;;;;;5111650;28;20006;-72
2021/08/28 10:32:21;;;;;;;;;;;13.80;99.90;;;;;;5095589;28;19909;-72
2021/08/28 10:34:48;;;;;;;;;;;14.00;99.90;;;;;;5089890;28;19908;-72
2021/08/28 10:37:13;;;;;;;;;;;13.80;99.90;;;;;;5090898;28;19944;-72
2021/08/28 10:39:39;;;;;;;;;;;13.80;99.90;;;;;;5091393;28;19916;-72
2021/08/28 10:42:06;;;;;;;;;;;13.70;99.90;;;;;;5091267;28;19912;-72
2021/08/28 10:44:32;;;;;;;;;;;13.70;99.90;;;;;;5091163;28;19908;-72
2021/08/28 10:46:58;;;;;;;;;;;13.70;99.90;;;;;;5090723;28;19923;-72
2021/08/28 10:49:24;;;;;;;;;;;13.50;99.90;;;;;;5093718;28;19908;-71
2021/08/28 10:51:55;;;;;;;;;;;13.70;99.90;;;;;;5095018;28;19916;-72
2021/08/28 10:54:29;;;;;;;;;;;13.70;99.90;;;;;;5095247;28;19912;-72
2021/08/28 10:56:56;;;;;;;;;;;13.60;99.90;;;;;;5094827;28;19923;-72
2021/08/28 10:59:22;;;;;;;;;;;13.50;99.90;;;;;;5095006;28;20003;-72
2021/08/28 11:01:52;;;;;;;;;;;13.40;99.90;;;;;;5090415;28;19995;-72
2021/08/28 11:04:53;;;;;;;;;;;13.60;99.90;;;;;;5094929;28;19955;-72
2021/08/28 11:07:25;;;;;;;;;;;13.80;99.90;;;;;;5051917;28;19909;-72
2021/08/28 11:10:01;;;;;;;;;;;13.90;99.90;;;;;;5087899;28;19916;-72
2021/08/28 11:12:27;;;;;;;;;;;13.90;99.90;;;;;;5094877;28;19908;-73
2021/08/28 11:14:52;;;;;;;;;;;13.80;99.90;;;;;;5094716;28;19977;-73
2021/08/28 11:17:34;;;;;;;;;;;13.60;99.90;;;;;;5094407;28;19916;-72
2021/08/28 11:20:01;;;;;;;;;;;13.50;99.90;;;;;;5094664;28;19912;-72
2021/08/28 11:22:33;;;;;;;;;;;13.30;99.90;;;;;;5094684;28;20293;-72
2021/08/28 11:25:00;;;;;;;;;;;13.30;99.90;;;;;;5094783;28;19909;-72
2021/08/28 11:27:45;;;;;;;;;;;13.10;99.90;;;;;;5093933;28;19912;-72
2021/08/28 11:30:12;;;;;;;;;;;13.20;99.90;;;;;;5094775;28;19920;-72
2021/08/28 11:32:37;;;;;;;;;;;13.20;99.90;;;;;;5089117;28;20015;-72
2021/08/28 11:35:03;;;;;;;;;;;13.30;99.90;;;;;;5094311;28;20005;-72
2021/08/28 11:37:29;;;;;;;;;;;13.10;99.90;;;;;;5093968;28;19908;-72
2021/08/28 11:39:57;;;;;;;;;;;13.20;99.90;;;;;;5094058;28;20346;-72
2021/08/28 11:42:23;;;;;;;;;;;13.10;99.90;;;;;;5094158;28;19909;-72
2021/08/28 11:44:52;;;;;;;;;;;13.10;99.90;;;;;;5094248;28;19908;-73
2021/08/28 11:47:19;;;;;;;;;;;13.20;99.90;;;;;;5093760;28;20372;-72
2021/08/28 11:49:44;;;;;;;;;;;13.30;99.90;;;;;;5094197;28;19908;-72
2021/08/28 11:52:10;;;;;;;;;;;13.10;99.90;;;;;;5094170;28;19915;-72
2021/08/28 11:54:35;;;;;;;;;;;13.10;99.90;;;;;;5094002;28;19922;-72
2021/08/28 11:57:01;;;;;;;;;;;13.10;99.90;;;;;;5093667;28;19912;-73
2021/08/28 11:59:53;;;;;;;;;;;13.10;99.90;;;;;;5093677;28;19915;-74
2021/08/28 12:02:19;;;;;;;;;;;13.00;99.90;;;;;;5087535;28;20315;-72
2021/08/28 12:04:45;;;;;;;;;;;13.20;99.90;;;;;;5111401;28;19967;-72
2021/08/28 12:07:11;;;;;;;;;;;13.20;99.90;;;;;;5113824;28;19908;-72
2021/08/28 12:09:36;;;;;;;;;;;13.00;99.90;;;;;;5114308;28;20245;-73
2021/08/28 12:12:02;;;;;;;;;;;13.00;99.90;;;;;;5114094;28;19915;-73
2021/08/28 12:14:29;;;;;;;;;;;12.80;99.90;;;;;;5114165;28;20325;-73
2021/08/28 12:16:55;;;;;;;;;;;12.90;99.90;;;;;;5113748;28;20386;-72
2021/08/28 12:19:21;;;;;;;;;;;12.90;99.90;;;;;;5114043;28;19908;-72
2021/08/28 12:21:55;;;;;;;;;;;12.90;99.90;;;;;;5113939;28;20429;-72
2021/08/28 12:24:20;;;;;;;;;;;12.90;99.90;;;;;;5114522;28;19915;-72
2021/08/28 12:26:47;;;;;;;;;;;12.80;99.90;;;;;;5114971;28;19908;-73
2021/08/28 12:29:19;;;;;;;;;;;12.70;99.90;;;;;;5114497;28;20288;-72
2021/08/28 12:31:51;;;;;;;;;;;12.80;99.90;;;;;;5105424;28;20427;-72
2021/08/28 12:34:20;;;;;;;;;;;12.80;99.90;;;;;;5093268;28;19922;-73
2021/08/28 12:36:46;;;;;;;;;;;12.80;99.90;;;;;;5093831;28;20402;-72
2021/08/28 12:39:12;;;;;;;;;;;12.60;99.90;;;;;;5094555;28;19911;-74
2021/08/28 12:41:38;;;;;;;;;;;12.60;99.90;;;;;;5093750;28;19912;-72
2021/08/28 12:44:04;;;;;;;;;;;12.70;99.90;;;;;;5093516;28;19912;-72
2021/08/28 12:46:30;;;;;;;;;;;12.70;99.90;;;;;;5092928;28;19981;-72
2021/08/28 12:49:05;;;;;;;;;;;12.70;99.90;;;;;;5093383;28;19947;-72
2021/08/28 12:51:31;;;;;;;;;;;12.70;99.90;;;;;;5093287;28;19930;-72
2021/08/28 12:53:56;;;;;;;;;;;12.70;99.90;;;;;;5093173;28;19908;-73
2021/08/28 12:56:22;;;;;;;;;;;12.80;99.90;;;;;;5093172;28;19908;-73
2021/08/28 12:58:47;;;;;;;;;;;12.90;99.90;;;;;;5093066;28;19990;-72
2021/08/28 13:01:13;;;;;;;;;;;12.90;99.90;;;;;;5092796;28;19955;-72
2021/08/28 13:03:46;;;;;;;;;;;13.10;99.90;;;;;;5089711;28;19970;-73
2021/08/28 13:06:21;;;;;;;;;;;13.20;99.90;;;;;;5092917;28;19939;-72
2021/08/28 13:08:47;;;;;;;;;;;13.30;99.90;;;;;;5092963;28;20296;-73
2021/08/28 13:11:30;;;;;;;;;;;13.60;99.90;;;;;;5092119;28;19908;-74
2021/08/28 13:13:59;;;;;;;;;;;13.90;99.90;;;;;;5092822;28;19957;-73
2021/08/28 13:16:24;;;;;;;;;;;14.10;99.90;;;;;;5092439;28;20003;-72
2021/08/28 13:19:06;;;;;;;;;;;14.10;99.90;;;;;;5092772;28;19947;-72
2021/08/28 13:21:38;;;;;;;;;;;14.10;99.90;;;;;;5092914;28;19919;-72
2021/08/28 13:24:09;;;;;;;;;;;14.20;99.90;;;;;;5092436;28;19909;-73
2021/08/28 13:26:53;;;;;;;;;;;14.40;99.90;;;;;;5092135;28;20305;-73
2021/08/28 13:29:25;;;;;;;;;;;15.00;99.90;;;;;;5092623;28;20372;-74
2021/08/28 13:32:11;;;;;;;;;;;15.40;99.90;;;;;;5089199;28;20004;-72
2021/08/28 13:34:36;;;;;;;;;;;15.10;99.90;;;;;;5091526;28;20007;-72
2021/08/28 13:37:03;;;;;;;;;;;14.70;99.90;;;;;;5092169;28;19951;-72
2021/08/28 13:39:29;;;;;;;;;;;14.20;99.90;;;;;;5092273;28;19912;-73
2021/08/28 13:41:54;;;;;;;;;;;14.20;99.90;;;;;;5092146;28;19991;-72
2021/08/28 13:44:20;;;;;;;;;;;14.10;99.90;;;;;;5092146;28;19908;-72
2021/08/28 13:46:45;;;;;;;;;;;13.90;99.90;;;;;;5091949;28;19920;-72
2021/08/28 13:49:10;;;;;;;;;;;13.80;99.90;;;;;;5092560;28;20075;-72
2021/08/28 13:51:36;;;;;;;;;;;13.80;99.90;;;;;;5091983;28;19985;-72
2021/08/28 13:54:01;;;;;;;;;;;13.80;99.90;;;;;;5091909;28;19908;-74
2021/08/28 13:56:28;;;;;;;;;;;13.70;99.90;;;;;;5091674;28;20323;-72
2021/08/28 13:58:53;;;;;;;;;;;13.80;99.90;;;;;;5092373;28;20266;-74
2021/08/28 14:01:19;;;;;;;;;;;13.80;99.90;;;;;;5091539;28;19919;-72
2021/08/28 14:03:44;;;;;;;;;;;13.90;99.90;;;;;;5088575;28;19959;-72
2021/08/28 14:06:10;;;;;;;;;;;14.00;99.90;;;;;;5091409;28;19912;-74
2021/08/28 14:08:36;;;;;;;;;;;14.20;99.90;;;;;;5091768;28;20284;-72
2021/08/28 14:11:01;;;;;;;;;;;14.20;99.90;;;;;;5091800;28;19912;-72
2021/08/28 14:13:27;;;;;;;;;;;14.20;99.90;;;;;;5091984;28;19908;-72